Caribbean Princess — ZCDG8 — position and weather

sailwx.info

Track history (hours):
 
Tides and Currents Weather Stations Pressure Air Temp Water Temp Dewpoint Dewpoint Depression Visibility Wind Speed Wind Dir Waves Ship Positions

Caribbean Princess

Operator: Princess Cruises

Last reported at 2014-Dec-22 10:33 UTC. Time now 2014-Dec-22 10:40 UTC.
Position N 26°06' W 079°59'.

Type: Passenger vessel. MMSI: 310423000.

Date/timePositionNaut miles runAvg speedWind from/ knotsBaromVisibWave heightAir tempDewpointWater temp
2014-Dec-22 10:33N 26°06' W 079°59'1111.4
2014-Dec-22 09:33N 26°08' W 079°47'1211.8
2014-Dec-22 08:34N 26°11' W 079°34'1312.3
2014-Dec-22 07:33N 26°13' W 079°20'3414.1
2014-Dec-22 05:10N 26°12' W 078°43'1217.5
2014-Dec-22 04:30N 26°08' W 078°31'2217.5
2014-Dec-22 03:15N 26°01' W 078°08'3017.0
2014-Dec-22 01:30N 25°51' W 077°37'1717.6
2014-Dec-22 00:34N 25°45' W 077°19'330 7.4
2014-Dec-20 04:00N 22°42' W 072°18'6115.2 090 / 121017.810.8 0.525.017.527.0
2014-Dec-20 00:00N 23°24' W 073°06'31415.7 080 / 121017.810.8 0.524.017.227.0
2014-Dec-19 04:00N 26°00' W 078°06'7717.4 180 / 51019.927.0 22.017.527.0
2014-Dec-18 23:33N 26°11' W 079°31'1817.7
2014-Dec-18 22:33N 26°08' W 079°50'1514.6
2014-Dec-18 21:33N 26°06' W 080°06'1 0.7
2014-Dec-18 20:32N 26°06' W 080°07'0 0.0
2014-Dec-18 19:32N 26°06' W 080°07'0 0.0
2014-Dec-18 18:23N 26°06' W 080°07'0 0.0
2014-Dec-18 17:26N 26°06' W 080°07'0 0.0
2014-Dec-18 16:26N 26°06' W 080°07'0 0.0
2014-Dec-18 15:26N 26°06' W 080°07'0 0.0
2014-Dec-18 14:29N 26°06' W 080°07'0 0.0
2014-Dec-18 13:29N 26°06' W 080°07'0 0.0
2014-Dec-18 12:29N 26°06' W 080°07'0 0.1
2014-Dec-18 11:33N 26°06' W 080°07'7 7.0
2014-Dec-18 10:33N 26°05' W 079°59'1313.3
2014-Dec-18 09:33N 25°54' W 079°53'1616.5
2014-Dec-18 08:33N 25°37' W 079°53'14817.3
2014-Dec-18 00:00N 23°42' W 081°36'356 7.3 050 / 181020.010.8 0.523.016.926.0
2014-Dec-15 23:17N 20°29' W 086°59'1 0.3
2014-Dec-15 21:33N 20°29' W 086°59'0 0.0
2014-Dec-15 20:09N 20°29' W 086°59'1 0.1
2014-Dec-15 12:28N 20°30' W 086°59'50213.5
2014-Dec-13 23:21N 25°42' W 079°51'1316.4
2014-Dec-13 22:33N 25°54' W 079°56'1514.8
2014-Dec-13 21:33N 26°06' W 080°06'1 0.6
2014-Dec-13 20:29N 26°05' W 080°07'0 0.0
2014-Dec-13 19:29N 26°05' W 080°07'0 0.0
2014-Dec-13 18:29N 26°05' W 080°07'0 0.0
2014-Dec-13 17:32N 26°05' W 080°07'0 0.0
2014-Dec-13 16:32N 26°05' W 080°07'0 0.0
2014-Dec-13 15:32N 26°05' W 080°07'0 0.0
2014-Dec-13 14:32N 26°05' W 080°07'0 0.0
2014-Dec-13 13:32N 26°05' W 080°07'0 0.0
2014-Dec-13 12:32N 26°05' W 080°07'0 0.0
2014-Dec-13 11:32N 26°05' W 080°07'0 0.2
2014-Dec-13 10:34N 26°06' W 080°07'1010.4
2014-Dec-13 09:33N 26°03' W 079°56'1313.5
2014-Dec-13 08:33N 25°51' W 079°48'1413.7
2014-Dec-13 07:33N 25°39' W 079°41'13 1.4
2014-Dec-12 22:33N 25°49' W 079°32'1111.5
2014-Dec-12 21:33N 25°59' W 079°26'1110.9
2014-Dec-12 20:34N 26°08' W 079°20'84 9.8
2014-Dec-12 12:00N 25°54' W 077°48'   250 / 101022.310.8 19.512.926.0
Track history (hours):
 
Tides and Currents Weather Stations Pressure Air Temp Water Temp Dewpoint Dewpoint Depression Visibility Wind Speed Wind Dir Waves Ship Positions

Caribbean Princess

Operator: Princess Cruises

Last reported at 2014-Dec-22 10:33 UTC. Time now 2014-Dec-22 10:40 UTC.
Position N 26°06' W 079°59'.

Type: Passenger vessel. MMSI: 310423000.

Date/timePositionNaut miles runAvg speedWind from/ knotsBaromVisibWave heightAir tempDewpointWater temp
2014-Dec-22 10:33N 26°06' W 079°59'1111.4
2014-Dec-22 09:33N 26°08' W 079°47'1211.8
2014-Dec-22 08:34N 26°11' W 079°34'1312.3
2014-Dec-22 07:33N 26°13' W 079°20'3414.1
2014-Dec-22 05:10N 26°12' W 078°43'1217.5
2014-Dec-22 04:30N 26°08' W 078°31'2217.5
2014-Dec-22 03:15N 26°01' W 078°08'3017.0
2014-Dec-22 01:30N 25°51' W 077°37'1717.6
2014-Dec-22 00:34N 25°45' W 077°19'330 7.4
2014-Dec-20 04:00N 22°42' W 072°18'6115.2 090 / 121017.810.8 0.525.017.527.0
2014-Dec-20 00:00N 23°24' W 073°06'31415.7 080 / 121017.810.8 0.524.017.227.0
2014-Dec-19 04:00N 26°00' W 078°06'7717.4 180 / 51019.927.0 22.017.527.0
2014-Dec-18 23:33N 26°11' W 079°31'1817.7
2014-Dec-18 22:33N 26°08' W 079°50'1514.6
2014-Dec-18 21:33N 26°06' W 080°06'1 0.7
2014-Dec-18 20:32N 26°06' W 080°07'0 0.0
2014-Dec-18 19:32N 26°06' W 080°07'0 0.0
2014-Dec-18 18:23N 26°06' W 080°07'0 0.0
2014-Dec-18 17:26N 26°06' W 080°07'0 0.0
2014-Dec-18 16:26N 26°06' W 080°07'0 0.0
2014-Dec-18 15:26N 26°06' W 080°07'0 0.0
2014-Dec-18 14:29N 26°06' W 080°07'0 0.0
2014-Dec-18 13:29N 26°06' W 080°07'0 0.0
2014-Dec-18 12:29N 26°06' W 080°07'0 0.1
2014-Dec-18 11:33N 26°06' W 080°07'7 7.0
2014-Dec-18 10:33N 26°05' W 079°59'1313.3
2014-Dec-18 09:33N 25°54' W 079°53'1616.5
2014-Dec-18 08:33N 25°37' W 079°53'14817.3
2014-Dec-18 00:00N 23°42' W 081°36'356 7.3 050 / 181020.010.8 0.523.016.926.0
2014-Dec-15 23:17N 20°29' W 086°59'1 0.3
2014-Dec-15 21:33N 20°29' W 086°59'0 0.0
2014-Dec-15 20:09N 20°29' W 086°59'1 0.1
2014-Dec-15 12:28N 20°30' W 086°59'50213.5
2014-Dec-13 23:21N 25°42' W 079°51'1316.4
2014-Dec-13 22:33N 25°54' W 079°56'1514.8
2014-Dec-13 21:33N 26°06' W 080°06'1 0.6
2014-Dec-13 20:29N 26°05' W 080°07'0 0.0
2014-Dec-13 19:29N 26°05' W 080°07'0 0.0
2014-Dec-13 18:29N 26°05' W 080°07'0 0.0
2014-Dec-13 17:32N 26°05' W 080°07'0 0.0
2014-Dec-13 16:32N 26°05' W 080°07'0 0.0
2014-Dec-13 15:32N 26°05' W 080°07'0 0.0
2014-Dec-13 14:32N 26°05' W 080°07'0 0.0
2014-Dec-13 13:32N 26°05' W 080°07'0 0.0
2014-Dec-13 12:32N 26°05' W 080°07'0 0.0
2014-Dec-13 11:32N 26°05' W 080°07'0 0.2
2014-Dec-13 10:34N 26°06' W 080°07'1010.4
2014-Dec-13 09:33N 26°03' W 079°56'1313.5
2014-Dec-13 08:33N 25°51' W 079°48'1413.7
2014-Dec-13 07:33N 25°39' W 079°41'13 1.4
2014-Dec-12 22:33N 25°49' W 079°32'1111.5
2014-Dec-12 21:33N 25°59' W 079°26'1110.9
2014-Dec-12 20:34N 26°08' W 079°20'84 9.8
2014-Dec-12 12:00N 25°54' W 077°48'   250 / 101022.310.8 19.512.926.0

Dump ship's entire track history